sensor_id;sensor_type;location;lat;lon;timestamp;P1;durP1;ratioP1;P2;durP2;ratioP2
43511;SDS011;34054;52.100;5.116;2023-08-06T00:00:15;5.22;;;4.18;;
43511;SDS011;34054;52.100;5.116;2023-08-06T00:00:47;4.50;;;3.92;;
43511;SDS011;34054;52.100;5.116;2023-08-06T00:01:18;5.13;;;4.15;;
43511;SDS011;34054;52.100;5.116;2023-08-06T00:01:52;5.47;;;4.03;;
43511;SDS011;34054;52.100;5.116;2023-08-06T00:02:24;4.55;;;3.42;;
43511;SDS011;34054;52.100;5.116;2023-08-06T00:02:55;8.25;;;4.30;;
43511;SDS011;34054;52.100;5.116;2023-08-06T00:03:26;3.58;;;2.92;;
43511;SDS011;34054;52.100;5.116;2023-08-06T00:03:57;6.75;;;4.68;;
43511;SDS011;34054;52.100;5.116;2023-08-06T00:04:30;6.03;;;4.47;;
43511;SDS011;34054;52.100;5.116;2023-08-06T00:05:02;10.93;;;4.05;;
43511;SDS011;34054;52.100;5.116;2023-08-06T00:05:33;4.97;;;3.63;;
43511;SDS011;34054;52.100;5.116;2023-08-06T00:06:04;3.38;;;2.65;;
43511;SDS011;34054;52.100;5.116;2023-08-06T00:06:37;4.65;;;4.05;;
43511;SDS011;34054;52.100;5.116;2023-08-06T00:07:10;4.10;;;3.03;;
43511;SDS011;34054;52.100;5.116;2023-08-06T00:07:41;5.28;;;3.65;;
43511;SDS011;34054;52.100;5.116;2023-08-06T00:08:12;5.60;;;4.45;;
43511;SDS011;34054;52.100;5.116;2023-08-06T00:08:44;4.97;;;2.70;;
43511;SDS011;34054;52.100;5.116;2023-08-06T00:09:16;11.30;;;3.38;;
43511;SDS011;34054;52.100;5.116;2023-08-06T00:09:47;5.50;;;4.20;;
43511;SDS011;34054;52.100;5.116;2023-08-06T00:10:18;4.60;;;4.18;;
43511;SDS011;34054;52.100;5.116;2023-08-06T00:10:49;8.88;;;4.70;;
43511;SDS011;34054;52.100;5.116;2023-08-06T00:11:21;5.00;;;3.90;;
43511;SDS011;34054;52.100;5.116;2023-08-06T00:11:53;4.50;;;3.40;;
43511;SDS011;34054;52.100;5.116;2023-08-06T00:12:24;6.10;;;4.40;;
43511;SDS011;34054;52.100;5.116;2023-08-06T00:12:55;6.45;;;4.25;;
43511;SDS011;34054;52.100;5.116;2023-08-06T00:13:27;5.80;;;4.65;;
43511;SDS011;34054;52.100;5.116;2023-08-06T00:13:58;8.68;;;2.83;;
43511;SDS011;34054;52.100;5.116;2023-08-06T00:14:30;6.18;;;4.40;;
43511;SDS011;34054;52.100;5.116;2023-08-06T00:15:01;3.88;;;3.22;;
43511;SDS011;34054;52.100;5.116;2023-08-06T00:15:33;4.93;;;4.38;;
43511;SDS011;34054;52.100;5.116;2023-08-06T00:16:09;5.63;;;3.63;;
43511;SDS011;34054;52.100;5.116;2023-08-06T00:16:42;6.03;;;4.50;;
43511;SDS011;34054;52.100;5.116;2023-08-06T00:17:14;6.65;;;3.95;;
43511;SDS011;34054;52.100;5.116;2023-08-06T00:17:46;3.63;;;3.15;;
43511;SDS011;34054;52.100;5.116;2023-08-06T00:18:17;4.90;;;3.63;;
43511;SDS011;34054;52.100;5.116;2023-08-06T00:18:49;5.40;;;3.95;;
43511;SDS011;34054;52.100;5.116;2023-08-06T00:19:21;4.57;;;3.80;;
43511;SDS011;34054;52.100;5.116;2023-08-06T00:19:52;4.10;;;3.65;;
43511;SDS011;34054;52.100;5.116;2023-08-06T00:20:24;4.38;;;3.17;;
43511;SDS011;34054;52.100;5.116;2023-08-06T00:20:55;5.43;;;4.47;;
43511;SDS011;34054;52.100;5.116;2023-08-06T00:21:26;5.88;;;4.65;;
43511;SDS011;34054;52.100;5.116;2023-08-06T00:21:58;5.20;;;4.05;;
43511;SDS011;34054;52.100;5.116;2023-08-06T00:22:31;6.50;;;5.28;;
43511;SDS011;34054;52.100;5.116;2023-08-06T00:23:02;4.32;;;3.60;;
43511;SDS011;34054;52.100;5.116;2023-08-06T00:23:35;5.38;;;4.40;;
43511;SDS011;34054;52.100;5.116;2023-08-06T00:24:06;6.40;;;4.45;;
43511;SDS011;34054;52.100;5.116;2023-08-06T00:24:37;7.00;;;3.67;;
43511;SDS011;34054;52.100;5.116;2023-08-06T00:25:08;4.75;;;3.22;;
43511;SDS011;34054;52.100;5.116;2023-08-06T00:25:40;6.15;;;3.38;;
43511;SDS011;34054;52.100;5.116;2023-08-06T00:26:11;9.40;;;4.03;;
43511;SDS011;34054;52.100;5.116;2023-08-06T00:26:43;8.60;;;5.05;;
43511;SDS011;34054;52.100;5.116;2023-08-06T00:27:15;8.88;;;4.88;;
43511;SDS011;34054;52.100;5.116;2023-08-06T00:27:46;4.28;;;3.30;;
43511;SDS011;34054;52.100;5.116;2023-08-06T00:28:17;5.13;;;3.65;;
43511;SDS011;34054;52.100;5.116;2023-08-06T00:28:48;4.78;;;3.78;;
43511;SDS011;34054;52.100;5.116;2023-08-06T00:29:21;21.52;;;13.63;;
43511;SDS011;34054;52.100;5.116;2023-08-06T00:29:52;4.38;;;3.90;;
43511;SDS011;34054;52.100;5.116;2023-08-06T00:30:23;27.55;;;17.80;;
43511;SDS011;34054;52.100;5.116;2023-08-06T00:30:54;15.05;;;9.77;;
43511;SDS011;34054;52.100;5.116;2023-08-06T00:31:27;12.85;;;8.32;;
43511;SDS011;34054;52.100;5.116;2023-08-06T00:31:58;32.33;;;26.20;;
43511;SDS011;34054;52.100;5.116;2023-08-06T00:32:29;19.63;;;16.30;;
43511;SDS011;34054;52.100;5.116;2023-08-06T00:33:00;11.68;;;10.18;;
43511;SDS011;34054;52.100;5.116;2023-08-06T00:33:32;15.13;;;12.60;;
43511;SDS011;34054;52.100;5.116;2023-08-06T00:34:04;56.45;;;34.60;;
43511;SDS011;34054;52.100;5.116;2023-08-06T00:34:35;37.92;;;19.08;;
43511;SDS011;34054;52.100;5.116;2023-08-06T00:35:06;14.23;;;12.55;;
43511;SDS011;34054;52.100;5.116;2023-08-06T00:35:38;14.60;;;5.75;;
43511;SDS011;34054;52.100;5.116;2023-08-06T00:36:10;5.25;;;3.88;;
43511;SDS011;34054;52.100;5.116;2023-08-06T00:36:41;12.27;;;4.47;;
43511;SDS011;34054;52.100;5.116;2023-08-06T00:37:12;7.00;;;4.18;;
43511;SDS011;34054;52.100;5.116;2023-08-06T00:37:45;3.95;;;3.08;;
43511;SDS011;34054;52.100;5.116;2023-08-06T00:38:18;5.00;;;3.75;;
43511;SDS011;34054;52.100;5.116;2023-08-06T00:38:49;4.65;;;3.95;;
43511;SDS011;34054;52.100;5.116;2023-08-06T00:39:20;6.00;;;4.55;;
43511;SDS011;34054;52.100;5.116;2023-08-06T00:39:53;4.65;;;4.20;;
43511;SDS011;34054;52.100;5.116;2023-08-06T00:40:24;6.20;;;4.32;;
43511;SDS011;34054;52.100;5.116;2023-08-06T00:40:56;6.80;;;4.20;;
43511;SDS011;34054;52.100;5.116;2023-08-06T00:41:27;6.20;;;3.92;;
43511;SDS011;34054;52.100;5.116;2023-08-06T00:41:59;4.53;;;3.63;;
43511;SDS011;34054;52.100;5.116;2023-08-06T00:42:30;8.77;;;4.03;;
43511;SDS011;34054;52.100;5.116;2023-08-06T00:43:01;4.68;;;2.88;;
43511;SDS011;34054;52.100;5.116;2023-08-06T00:43:33;7.32;;;4.40;;
43511;SDS011;34054;52.100;5.116;2023-08-06T00:44:05;7.30;;;4.65;;
43511;SDS011;34054;52.100;5.116;2023-08-06T00:44:36;5.25;;;3.72;;
43511;SDS011;34054;52.100;5.116;2023-08-06T00:45:08;3.75;;;3.28;;
43511;SDS011;34054;52.100;5.116;2023-08-06T00:45:39;5.32;;;3.67;;
43511;SDS011;34054;52.100;5.116;2023-08-06T00:46:12;7.10;;;4.63;;
43511;SDS011;34054;52.100;5.116;2023-08-06T00:46:43;6.00;;;4.15;;
43511;SDS011;34054;52.100;5.116;2023-08-06T00:47:14;4.10;;;3.47;;
43511;SDS011;34054;52.100;5.116;2023-08-06T00:47:46;5.88;;;4.30;;
43511;SDS011;34054;52.100;5.116;2023-08-06T00:48:19;6.18;;;4.07;;
43511;SDS011;34054;52.100;5.116;2023-08-06T00:48:51;4.68;;;3.50;;
43511;SDS011;34054;52.100;5.116;2023-08-06T00:49:22;7.97;;;3.40;;
43511;SDS011;34054;52.100;5.116;2023-08-06T00:49:53;5.85;;;4.43;;
43511;SDS011;34054;52.100;5.116;2023-08-06T00:50:26;6.45;;;3.28;;
43511;SDS011;34054;52.100;5.116;2023-08-06T00:50:57;4.38;;;3.75;;
43511;SDS011;34054;52.100;5.116;2023-08-06T00:51:29;6.88;;;4.78;;
43511;SDS011;34054;52.100;5.116;2023-08-06T00:52:00;5.30;;;3.45;;
43511;SDS011;34054;52.100;5.116;2023-08-06T00:52:34;8.23;;;3.30;;
43511;SDS011;34054;52.100;5.116;2023-08-06T00:53:07;6.60;;;4.40;;
43511;SDS011;34054;52.100;5.116;2023-08-06T00:53:39;6.78;;;2.97;;
43511;SDS011;34054;52.100;5.116;2023-08-06T00:54:11;6.18;;;4.05;;
43511;SDS011;34054;52.100;5.116;2023-08-06T00:54:43;6.03;;;3.33;;
43511;SDS011;34054;52.100;5.116;2023-08-06T00:55:14;5.43;;;3.72;;
43511;SDS011;34054;52.100;5.116;2023-08-06T00:55:47;5.07;;;3.53;;
43511;SDS011;34054;52.100;5.116;2023-08-06T00:56:18;9.13;;;3.25;;
43511;SDS011;34054;52.100;5.116;2023-08-06T00:56:50;5.40;;;4.13;;
43511;SDS011;34054;52.100;5.116;2023-08-06T00:57:21;4.43;;;3.22;;
43511;SDS011;34054;52.100;5.116;2023-08-06T00:57:56;5.85;;;4.22;;
43511;SDS011;34054;52.100;5.116;2023-08-06T00:58:28;6.10;;;4.50;;
43511;SDS011;34054;52.100;5.116;2023-08-06T00:58:59;4.78;;;3.08;;
43511;SDS011;34054;52.100;5.116;2023-08-06T00:59:31;5.38;;;3.42;;
43511;SDS011;34054;52.100;5.116;2023-08-06T01:00:04;4.25;;;3.05;;
43511;SDS011;34054;52.100;5.116;2023-08-06T01:00:36;6.68;;;4.13;;
43511;SDS011;34054;52.100;5.116;2023-08-06T01:01:08;8.98;;;5.03;;
43511;SDS011;34054;52.100;5.116;2023-08-06T01:01:39;7.22;;;5.15;;
43511;SDS011;34054;52.100;5.116;2023-08-06T01:02:12;5.40;;;4.07;;
43511;SDS011;34054;52.100;5.116;2023-08-06T01:02:43;5.47;;;3.67;;
43511;SDS011;34054;52.100;5.116;2023-08-06T01:03:14;4.93;;;4.03;;
43511;SDS011;34054;52.100;5.116;2023-08-06T01:03:46;11.88;;;4.30;;
43511;SDS011;34054;52.100;5.116;2023-08-06T01:04:18;3.97;;;2.83;;
43511;SDS011;34054;52.100;5.116;2023-08-06T01:04:50;6.38;;;4.78;;
43511;SDS011;34054;52.100;5.116;2023-08-06T01:05:21;6.30;;;3.70;;
43511;SDS011;34054;52.100;5.116;2023-08-06T01:05:54;5.50;;;3.50;;
43511;SDS011;34054;52.100;5.116;2023-08-06T01:06:30;4.03;;;2.80;;
43511;SDS011;34054;52.100;5.116;2023-08-06T01:07:13;6.47;;;3.60;;
43511;SDS011;34054;52.100;5.116;2023-08-06T01:07:57;5.38;;;3.47;;
43511;SDS011;34054;52.100;5.116;2023-08-06T01:08:44;5.38;;;4.00;;
43511;SDS011;34054;52.100;5.116;2023-08-06T01:09:26;4.15;;;3.50;;
43511;SDS011;34054;52.100;5.116;2023-08-06T01:10:11;6.63;;;4.20;;
43511;SDS011;34054;52.100;5.116;2023-08-06T01:11:03;5.72;;;3.00;;
43511;SDS011;34054;52.100;5.116;2023-08-06T01:11:54;10.20;;;4.38;;
43511;SDS011;34054;52.100;5.116;2023-08-06T01:12:38;4.40;;;3.45;;
43511;SDS011;34054;52.100;5.116;2023-08-06T01:13:16;8.98;;;3.10;;
43511;SDS011;34054;52.100;5.116;2023-08-06T01:13:58;3.65;;;3.25;;
43511;SDS011;34054;52.100;5.116;2023-08-06T01:14:34;4.20;;;3.80;;
43511;SDS011;34054;52.100;5.116;2023-08-06T01:15:14;6.88;;;4.80;;
43511;SDS011;34054;52.100;5.116;2023-08-06T01:15:54;6.75;;;4.65;;
43511;SDS011;34054;52.100;5.116;2023-08-06T01:16:27;4.93;;;3.22;;
43511;SDS011;34054;52.100;5.116;2023-08-06T01:17:01;14.85;;;3.88;;
43511;SDS011;34054;52.100;5.116;2023-08-06T01:17:34;4.68;;;3.55;;
43511;SDS011;34054;52.100;5.116;2023-08-06T01:18:07;12.82;;;3.90;;
43511;SDS011;34054;52.100;5.116;2023-08-06T01:18:40;6.70;;;3.92;;
43511;SDS011;34054;52.100;5.116;2023-08-06T01:19:15;4.55;;;3.67;;
43511;SDS011;34054;52.100;5.116;2023-08-06T01:19:47;7.78;;;4.90;;
43511;SDS011;34054;52.100;5.116;2023-08-06T01:20:19;7.38;;;5.13;;
43511;SDS011;34054;52.100;5.116;2023-08-06T01:20:52;7.78;;;3.95;;
43511;SDS011;34054;52.100;5.116;2023-08-06T01:21:23;4.55;;;3.85;;
43511;SDS011;34054;52.100;5.116;2023-08-06T01:21:55;6.32;;;4.30;;
43511;SDS011;34054;52.100;5.116;2023-08-06T01:22:26;6.15;;;3.92;;
43511;SDS011;34054;52.100;5.116;2023-08-06T01:22:58;5.78;;;4.15;;
43511;SDS011;34054;52.100;5.116;2023-08-06T01:23:29;5.07;;;3.88;;
43511;SDS011;34054;52.100;5.116;2023-08-06T01:24:00;4.38;;;3.20;;
43511;SDS011;34054;52.100;5.116;2023-08-06T01:24:32;5.80;;;3.53;;
43511;SDS011;34054;52.100;5.116;2023-08-06T01:25:04;5.68;;;3.78;;
43511;SDS011;34054;52.100;5.116;2023-08-06T01:25:39;5.25;;;4.28;;
43511;SDS011;34054;52.100;5.116;2023-08-06T01:26:19;6.53;;;4.68;;
43511;SDS011;34054;52.100;5.116;2023-08-06T01:27:36;5.22;;;3.13;;
43511;SDS011;34054;52.100;5.116;2023-08-06T01:28:15;4.45;;;3.67;;
43511;SDS011;34054;52.100;5.116;2023-08-06T01:28:55;5.65;;;4.25;;
43511;SDS011;34054;52.100;5.116;2023-08-06T01:29:31;6.22;;;4.45;;
43511;SDS011;34054;52.100;5.116;2023-08-06T01:30:06;4.40;;;3.47;;
43511;SDS011;34054;52.100;5.116;2023-08-06T01:30:42;5.28;;;3.67;;
43511;SDS011;34054;52.100;5.116;2023-08-06T01:31:15;4.13;;;3.38;;
43511;SDS011;34054;52.100;5.116;2023-08-06T01:31:52;5.72;;;3.97;;
43511;SDS011;34054;52.100;5.116;2023-08-06T01:32:26;5.32;;;3.33;;
43511;SDS011;34054;52.100;5.116;2023-08-06T01:33:00;6.53;;;4.88;;
43511;SDS011;34054;52.100;5.116;2023-08-06T01:33:36;4.65;;;3.53;;
43511;SDS011;34054;52.100;5.116;2023-08-06T01:34:13;6.88;;;4.20;;
43511;SDS011;34054;52.100;5.116;2023-08-06T01:34:48;6.32;;;4.15;;
43511;SDS011;34054;52.100;5.116;2023-08-06T01:35:21;20.98;;;15.55;;
43511;SDS011;34054;52.100;5.116;2023-08-06T01:35:55;18.10;;;16.30;;
43511;SDS011;34054;52.100;5.116;2023-08-06T01:36:28;25.80;;;22.95;;
43511;SDS011;34054;52.100;5.116;2023-08-06T01:37:00;56.60;;;50.70;;
43511;SDS011;34054;52.100;5.116;2023-08-06T01:37:32;23.95;;;19.98;;
43511;SDS011;34054;52.100;5.116;2023-08-06T01:38:03;20.73;;;13.25;;
43511;SDS011;34054;52.100;5.116;2023-08-06T01:38:35;6.43;;;5.47;;
43511;SDS011;34054;52.100;5.116;2023-08-06T01:39:07;18.25;;;12.48;;
43511;SDS011;34054;52.100;5.116;2023-08-06T01:39:39;43.60;;;35.83;;
43511;SDS011;34054;52.100;5.116;2023-08-06T01:40:13;40.00;;;28.13;;
43511;SDS011;34054;52.100;5.116;2023-08-06T01:40:45;32.75;;;24.10;;
43511;SDS011;34054;52.100;5.116;2023-08-06T01:41:16;31.40;;;27.80;;
43511;SDS011;34054;52.100;5.116;2023-08-06T01:41:48;45.67;;;29.30;;
43511;SDS011;34054;52.100;5.116;2023-08-06T01:42:20;21.45;;;19.23;;
43511;SDS011;34054;52.100;5.116;2023-08-06T01:42:51;40.45;;;30.70;;
43511;SDS011;34054;52.100;5.116;2023-08-06T01:43:22;34.85;;;31.23;;
43511;SDS011;34054;52.100;5.116;2023-08-06T01:43:53;30.02;;;26.80;;
43511;SDS011;34054;52.100;5.116;2023-08-06T01:44:25;20.35;;;18.13;;
43511;SDS011;34054;52.100;5.116;2023-08-06T01:44:57;17.38;;;12.43;;
43511;SDS011;34054;52.100;5.116;2023-08-06T01:45:28;54.97;;;36.92;;
43511;SDS011;34054;52.100;5.116;2023-08-06T01:46:00;17.40;;;13.75;;
43511;SDS011;34054;52.100;5.116;2023-08-06T01:46:31;18.25;;;13.10;;
43511;SDS011;34054;52.100;5.116;2023-08-06T01:47:03;26.55;;;20.58;;
43511;SDS011;34054;52.100;5.116;2023-08-06T01:47:34;40.83;;;28.05;;
43511;SDS011;34054;52.100;5.116;2023-08-06T01:48:07;20.15;;;12.57;;
43511;SDS011;34054;52.100;5.116;2023-08-06T01:48:38;33.15;;;22.17;;
43511;SDS011;34054;52.100;5.116;2023-08-06T01:49:09;25.55;;;21.00;;
43511;SDS011;34054;52.100;5.116;2023-08-06T01:49:41;36.10;;;24.33;;
43511;SDS011;34054;52.100;5.116;2023-08-06T01:50:13;14.15;;;11.68;;
43511;SDS011;34054;52.100;5.116;2023-08-06T01:50:44;6.85;;;4.78;;
43511;SDS011;34054;52.100;5.116;2023-08-06T01:51:17;6.13;;;3.00;;
43511;SDS011;34054;52.100;5.116;2023-08-06T01:51:48;31.63;;;22.95;;
43511;SDS011;34054;52.100;5.116;2023-08-06T01:52:20;21.65;;;15.65;;
43511;SDS011;34054;52.100;5.116;2023-08-06T01:52:51;20.85;;;14.85;;
43511;SDS011;34054;52.100;5.116;2023-08-06T01:53:22;6.40;;;5.45;;
43511;SDS011;34054;52.100;5.116;2023-08-06T01:53:54;7.03;;;4.70;;
43511;SDS011;34054;52.100;5.116;2023-08-06T01:54:25;19.27;;;17.35;;
43511;SDS011;34054;52.100;5.116;2023-08-06T01:54:58;17.13;;;14.35;;
43511;SDS011;34054;52.100;5.116;2023-08-06T01:55:29;6.57;;;5.90;;
43511;SDS011;34054;52.100;5.116;2023-08-06T01:56:01;27.17;;;22.90;;
43511;SDS011;34054;52.100;5.116;2023-08-06T01:56:32;11.07;;;7.50;;
43511;SDS011;34054;52.100;5.116;2023-08-06T01:57:04;19.27;;;15.05;;
43511;SDS011;34054;52.100;5.116;2023-08-06T01:57:36;16.10;;;12.55;;
43511;SDS011;34054;52.100;5.116;2023-08-06T01:58:08;10.73;;;8.43;;
43511;SDS011;34054;52.100;5.116;2023-08-06T01:58:39;16.73;;;13.35;;
43511;SDS011;34054;52.100;5.116;2023-08-06T01:59:10;24.80;;;20.52;;
43511;SDS011;34054;52.100;5.116;2023-08-06T01:59:42;24.50;;;18.55;;
43511;SDS011;34054;52.100;5.116;2023-08-06T02:00:13;7.00;;;4.32;;
43511;SDS011;34054;52.100;5.116;2023-08-06T02:00:45;15.43;;;9.93;;
43511;SDS011;34054;52.100;5.116;2023-08-06T02:01:16;23.02;;;18.90;;
43511;SDS011;34054;52.100;5.116;2023-08-06T02:01:49;9.43;;;7.93;;
43511;SDS011;34054;52.100;5.116;2023-08-06T02:02:20;16.27;;;14.68;;
43511;SDS011;34054;52.100;5.116;2023-08-06T02:02:51;20.38;;;12.68;;
43511;SDS011;34054;52.100;5.116;2023-08-06T02:03:22;13.98;;;11.00;;
43511;SDS011;34054;52.100;5.116;2023-08-06T02:03:54;18.55;;;13.90;;
43511;SDS011;34054;52.100;5.116;2023-08-06T02:04:25;17.10;;;13.38;;
43511;SDS011;34054;52.100;5.116;2023-08-06T02:04:56;8.82;;;7.38;;
43511;SDS011;34054;52.100;5.116;2023-08-06T02:05:28;18.20;;;12.95;;
43511;SDS011;34054;52.100;5.116;2023-08-06T02:06:01;7.25;;;4.07;;
43511;SDS011;34054;52.100;5.116;2023-08-06T02:06:33;9.25;;;8.05;;
43511;SDS011;34054;52.100;5.116;2023-08-06T02:07:04;24.10;;;14.88;;
43511;SDS011;34054;52.100;5.116;2023-08-06T02:07:37;7.00;;;6.20;;
43511;SDS011;34054;52.100;5.116;2023-08-06T02:08:08;18.05;;;12.23;;
43511;SDS011;34054;52.100;5.116;2023-08-06T02:08:39;12.50;;;10.88;;
43511;SDS011;34054;52.100;5.116;2023-08-06T02:09:10;7.72;;;6.53;;
43511;SDS011;34054;52.100;5.116;2023-08-06T02:09:43;9.60;;;4.22;;
43511;SDS011;34054;52.100;5.116;2023-08-06T02:10:14;16.95;;;12.88;;
43511;SDS011;34054;52.100;5.116;2023-08-06T02:10:45;12.25;;;9.98;;
43511;SDS011;34054;52.100;5.116;2023-08-06T02:11:16;23.02;;;13.30;;
43511;SDS011;34054;52.100;5.116;2023-08-06T02:11:49;10.75;;;7.93;;
43511;SDS011;34054;52.100;5.116;2023-08-06T02:12:22;16.92;;;13.57;;
43511;SDS011;34054;52.100;5.116;2023-08-06T02:12:53;7.75;;;6.40;;
43511;SDS011;34054;52.100;5.116;2023-08-06T02:13:25;20.55;;;18.27;;
43511;SDS011;34054;52.100;5.116;2023-08-06T02:13:56;25.15;;;18.85;;
43511;SDS011;34054;52.100;5.116;2023-08-06T02:14:28;6.15;;;5.35;;
43511;SDS011;34054;52.100;5.116;2023-08-06T02:14:59;21.80;;;15.52;;
43511;SDS011;34054;52.100;5.116;2023-08-06T02:15:31;14.60;;;13.10;;
43511;SDS011;34054;52.100;5.116;2023-08-06T02:16:02;10.20;;;9.18;;
43511;SDS011;34054;52.100;5.116;2023-08-06T02:16:34;10.13;;;8.00;;
43511;SDS011;34054;52.100;5.116;2023-08-06T02:17:05;12.63;;;11.38;;
43511;SDS011;34054;52.100;5.116;2023-08-06T02:17:37;13.80;;;5.47;;
43511;SDS011;34054;52.100;5.116;2023-08-06T02:18:09;22.33;;;14.15;;
43511;SDS011;34054;52.100;5.116;2023-08-06T02:18:40;9.90;;;8.38;;
43511;SDS011;34054;52.100;5.116;2023-08-06T02:19:11;12.75;;;7.72;;
43511;SDS011;34054;52.100;5.116;2023-08-06T02:19:43;7.32;;;5.68;;
43511;SDS011;34054;52.100;5.116;2023-08-06T02:20:14;15.93;;;11.93;;
43511;SDS011;34054;52.100;5.116;2023-08-06T02:20:54;12.20;;;9.52;;
43511;SDS011;34054;52.100;5.116;2023-08-06T02:21:27;8.23;;;7.32;;
43511;SDS011;34054;52.100;5.116;2023-08-06T02:22:00;18.27;;;13.13;;
43511;SDS011;34054;52.100;5.116;2023-08-06T02:22:32;7.38;;;6.63;;
43511;SDS011;34054;52.100;5.116;2023-08-06T02:23:04;10.32;;;7.38;;
43511;SDS011;34054;52.100;5.116;2023-08-06T02:23:35;4.68;;;4.18;;
43511;SDS011;34054;52.100;5.116;2023-08-06T02:24:07;17.50;;;15.15;;
43511;SDS011;34054;52.100;5.116;2023-08-06T02:24:38;15.02;;;9.10;;
43511;SDS011;34054;52.100;5.116;2023-08-06T02:25:09;13.40;;;9.50;;
43511;SDS011;34054;52.100;5.116;2023-08-06T02:25:41;10.55;;;8.32;;
43511;SDS011;34054;52.100;5.116;2023-08-06T02:26:13;16.95;;;11.40;;
43511;SDS011;34054;52.100;5.116;2023-08-06T02:26:44;14.18;;;10.85;;
43511;SDS011;34054;52.100;5.116;2023-08-06T02:27:15;7.68;;;6.75;;
43511;SDS011;34054;52.100;5.116;2023-08-06T02:27:46;8.15;;;5.85;;
43511;SDS011;34054;52.100;5.116;2023-08-06T02:28:19;8.25;;;7.38;;
43511;SDS011;34054;52.100;5.116;2023-08-06T02:28:50;6.63;;;5.65;;
43511;SDS011;34054;52.100;5.116;2023-08-06T02:29:21;15.77;;;9.57;;
43511;SDS011;34054;52.100;5.116;2023-08-06T02:29:53;6.63;;;4.82;;
43511;SDS011;34054;52.100;5.116;2023-08-06T02:30:24;8.00;;;6.38;;
43511;SDS011;34054;52.100;5.116;2023-08-06T02:30:56;8.65;;;6.28;;
43511;SDS011;34054;52.100;5.116;2023-08-06T02:31:27;6.57;;;5.88;;
43511;SDS011;34054;52.100;5.116;2023-08-06T02:31:59;7.15;;;5.85;;
43511;SDS011;34054;52.100;5.116;2023-08-06T02:32:32;12.73;;;7.82;;
43511;SDS011;34054;52.100;5.116;2023-08-06T02:33:06;6.53;;;5.60;;
43511;SDS011;34054;52.100;5.116;2023-08-06T02:33:37;11.07;;;8.52;;
43511;SDS011;34054;52.100;5.116;2023-08-06T02:34:09;13.73;;;7.45;;
43511;SDS011;34054;52.100;5.116;2023-08-06T02:34:40;9.20;;;8.25;;
43511;SDS011;34054;52.100;5.116;2023-08-06T02:35:12;14.23;;;10.57;;
43511;SDS011;34054;52.100;5.116;2023-08-06T02:35:43;10.82;;;8.25;;
43511;SDS011;34054;52.100;5.116;2023-08-06T02:36:15;11.77;;;8.52;;
43511;SDS011;34054;52.100;5.116;2023-08-06T02:36:46;16.10;;;12.05;;
43511;SDS011;34054;52.100;5.116;2023-08-06T02:37:19;9.32;;;8.38;;
43511;SDS011;34054;52.100;5.116;2023-08-06T02:37:51;11.70;;;9.63;;
43511;SDS011;34054;52.100;5.116;2023-08-06T02:38:22;18.90;;;12.43;;
43511;SDS011;34054;52.100;5.116;2023-08-06T02:38:53;22.75;;;14.45;;
43511;SDS011;34054;52.100;5.116;2023-08-06T02:39:25;13.48;;;7.30;;
43511;SDS011;34054;52.100;5.116;2023-08-06T02:39:57;5.30;;;4.60;;
43511;SDS011;34054;52.100;5.116;2023-08-06T02:40:28;10.32;;;7.50;;
43511;SDS011;34054;52.100;5.116;2023-08-06T02:41:01;11.82;;;7.97;;
43511;SDS011;34054;52.100;5.116;2023-08-06T02:41:33;6.18;;;5.10;;
43511;SDS011;34054;52.100;5.116;2023-08-06T02:42:05;18.52;;;12.70;;
43511;SDS011;34054;52.100;5.116;2023-08-06T02:42:37;12.07;;;6.40;;
43511;SDS011;34054;52.100;5.116;2023-08-06T02:43:08;10.75;;;8.95;;
43511;SDS011;34054;52.100;5.116;2023-08-06T02:43:39;14.13;;;10.05;;
43511;SDS011;34054;52.100;5.116;2023-08-06T02:44:11;9.32;;;8.40;;
43511;SDS011;34054;52.100;5.116;2023-08-06T02:44:42;19.08;;;7.63;;
43511;SDS011;34054;52.100;5.116;2023-08-06T02:45:13;12.50;;;9.30;;
43511;SDS011;34054;52.100;5.116;2023-08-06T02:45:46;6.72;;;5.43;;
43511;SDS011;34054;52.100;5.116;2023-08-06T02:46:17;11.23;;;7.97;;
43511;SDS011;34054;52.100;5.116;2023-08-06T02:46:48;6.30;;;4.68;;
43511;SDS011;34054;52.100;5.116;2023-08-06T02:47:19;12.90;;;11.18;;
43511;SDS011;34054;52.100;5.116;2023-08-06T02:47:51;8.45;;;6.40;;
43511;SDS011;34054;52.100;5.116;2023-08-06T02:48:23;13.80;;;10.63;;
43511;SDS011;34054;52.100;5.116;2023-08-06T02:48:54;8.80;;;5.97;;
43511;SDS011;34054;52.100;5.116;2023-08-06T02:49:25;12.55;;;10.65;;
43511;SDS011;34054;52.100;5.116;2023-08-06T02:49:56;16.08;;;12.75;;
43511;SDS011;34054;52.100;5.116;2023-08-06T02:50:29;7.22;;;5.72;;
43511;SDS011;34054;52.100;5.116;2023-08-06T02:51:00;9.80;;;5.68;;
43511;SDS011;34054;52.100;5.116;2023-08-06T02:51:31;8.98;;;8.05;;
43511;SDS011;34054;52.100;5.116;2023-08-06T02:52:04;8.95;;;7.32;;
43511;SDS011;34054;52.100;5.116;2023-08-06T02:52:37;10.55;;;5.55;;
43511;SDS011;34054;52.100;5.116;2023-08-06T02:53:09;12.88;;;10.35;;
43511;SDS011;34054;52.100;5.116;2023-08-06T02:53:40;16.42;;;12.13;;
43511;SDS011;34054;52.100;5.116;2023-08-06T02:54:13;8.02;;;5.72;;
43511;SDS011;34054;52.100;5.116;2023-08-06T02:54:44;10.18;;;7.93;;
43511;SDS011;34054;52.100;5.116;2023-08-06T02:55:15;14.35;;;8.70;;
43511;SDS011;34054;52.100;5.116;2023-08-06T02:55:46;7.05;;;5.45;;
43511;SDS011;34054;52.100;5.116;2023-08-06T02:56:19;13.43;;;9.20;;
43511;SDS011;34054;52.100;5.116;2023-08-06T02:56:50;12.27;;;10.88;;
43511;SDS011;34054;52.100;5.116;2023-08-06T02:57:21;11.70;;;9.20;;
43511;SDS011;34054;52.100;5.116;2023-08-06T02:57:53;8.60;;;5.55;;
43511;SDS011;34054;52.100;5.116;2023-08-06T02:58:25;6.43;;;3.80;;
43511;SDS011;34054;52.100;5.116;2023-08-06T02:58:56;4.97;;;4.47;;
43511;SDS011;34054;52.100;5.116;2023-08-06T02:59:27;11.13;;;8.07;;
43511;SDS011;34054;52.100;5.116;2023-08-06T02:59:58;13.65;;;10.27;;
43511;SDS011;34054;52.100;5.116;2023-08-06T03:00:30;12.25;;;7.95;;
43511;SDS011;34054;52.100;5.116;2023-08-06T03:01:02;12.10;;;7.60;;
43511;SDS011;34054;52.100;5.116;2023-08-06T03:01:34;7.10;;;6.40;;
43511;SDS011;34054;52.100;5.116;2023-08-06T03:02:06;11.20;;;6.53;;
43511;SDS011;34054;52.100;5.116;2023-08-06T03:02:38;11.40;;;7.55;;
43511;SDS011;34054;52.100;5.116;2023-08-06T03:03:10;8.82;;;7.40;;
43511;SDS011;34054;52.100;5.116;2023-08-06T03:03:41;8.95;;;7.80;;
43511;SDS011;34054;52.100;5.116;2023-08-06T03:04:13;9.23;;;6.78;;
43511;SDS011;34054;52.100;5.116;2023-08-06T03:04:44;6.40;;;5.50;;
43511;SDS011;34054;52.100;5.116;2023-08-06T03:05:15;15.35;;;10.15;;
43511;SDS011;34054;52.100;5.116;2023-08-06T03:05:51;10.98;;;8.45;;
43511;SDS011;34054;52.100;5.116;2023-08-06T03:06:23;7.90;;;4.93;;
43511;SDS011;34054;52.100;5.116;2023-08-06T03:06:54;10.50;;;7.18;;
43511;SDS011;34054;52.100;5.116;2023-08-06T03:07:25;12.48;;;4.75;;
43511;SDS011;34054;52.100;5.116;2023-08-06T03:07:59;14.80;;;6.78;;
43511;SDS011;34054;52.100;5.116;2023-08-06T03:08:30;9.45;;;6.75;;
43511;SDS011;34054;52.100;5.116;2023-08-06T03:09:02;10.70;;;7.10;;
43511;SDS011;34054;52.100;5.116;2023-08-06T03:09:33;7.22;;;5.15;;
43511;SDS011;34054;52.100;5.116;2023-08-06T03:10:05;7.63;;;6.75;;
43511;SDS011;34054;52.100;5.116;2023-08-06T03:10:37;11.90;;;9.60;;
43511;SDS011;34054;52.100;5.116;2023-08-06T03:11:08;12.18;;;8.77;;
43511;SDS011;34054;52.100;5.116;2023-08-06T03:11:39;13.43;;;9.45;;
43511;SDS011;34054;52.100;5.116;2023-08-06T03:12:11;12.38;;;8.30;;
43511;SDS011;34054;52.100;5.116;2023-08-06T03:12:43;11.32;;;8.45;;
43511;SDS011;34054;52.100;5.116;2023-08-06T03:13:14;6.40;;;4.82;;
43511;SDS011;34054;52.100;5.116;2023-08-06T03:13:46;9.30;;;7.53;;